Akashi — JM6695 — position and weather

sailwx.info

Track history (hours):
 
Tides and Currents Weather Stations Pressure Air Temp Water Temp Dewpoint Dewpoint Depression Visibility Wind Speed Wind Dir Waves Ship Positions

Akashi

Last reported at 2017-Oct-17 06:36 UTC. Time now 2017-Oct-17 22:28 UTC.
Position N 34°37' E 134°54'.

Length 75 m; draft 5 m.

Type: Cargo ship. MMSI: 431301627.

Date/timePositionNaut miles runAvg speedWind from/ knotsBaromVisibWave heightAir tempDewpointWater temp
2017-Oct-17 06:36N 34°37' E 134°54'211.9
2017-Oct-17 06:27N 34°37' E 134°56'510.5
2017-Oct-17 06:00N 34°37' E 135°02'5 9.9
2017-Oct-17 05:30N 34°37' E 135°08'611.4
2017-Oct-17 05:01N 34°37' E 135°15'4 7.5
2017-Oct-17 04:30N 34°41' E 135°17'0 0.1
2017-Oct-17 03:57N 34°41' E 135°17'0 0.0
2017-Oct-17 02:56N 34°41' E 135°17'0 0.0
2017-Oct-17 02:26N 34°41' E 135°17'0 0.5
2017-Oct-17 02:00N 34°41' E 135°16'2 3.6
2017-Oct-17 01:26N 34°40' E 135°14'0 0.0
2017-Oct-17 00:56N 34°40' E 135°14'0 0.9
2017-Oct-17 00:29N 34°39' E 135°15'0 0.0
2017-Oct-16 23:59N 34°39' E 135°15'0 0.0
2017-Oct-16 22:35N 34°39' E 135°15'0 0.0
2017-Oct-16 22:23N 34°39' E 135°15'0 0.0
2017-Oct-16 21:59N 34°39' E 135°15'0 0.0
2017-Oct-16 21:29N 34°39' E 135°15'0 0.0
2017-Oct-16 20:59N 34°39' E 135°15'0 0.0
2017-Oct-16 20:29N 34°39' E 135°15'0 0.0
2017-Oct-16 19:59N 34°39' E 135°15'0 0.0
2017-Oct-16 19:11N 34°39' E 135°15'0 0.0
2017-Oct-16 18:53N 34°39' E 135°15'0 0.0
2017-Oct-16 18:29N 34°39' E 135°15'0 0.0
2017-Oct-16 17:59N 34°39' E 135°15'0 0.0
2017-Oct-16 16:59N 34°39' E 135°15'0 0.0
2017-Oct-16 16:29N 34°39' E 135°15'0 0.0
2017-Oct-16 15:59N 34°39' E 135°15'0 0.0
2017-Oct-16 15:29N 34°39' E 135°15'0 0.1
2017-Oct-16 14:47N 34°39' E 135°15'0 0.1
2017-Oct-16 13:53N 34°39' E 135°15'0 0.0
2017-Oct-16 13:29N 34°39' E 135°15'0 0.0
2017-Oct-16 12:59N 34°39' E 135°15'0 0.0
2017-Oct-16 12:29N 34°39' E 135°15'0 0.0
2017-Oct-16 11:59N 34°39' E 135°15'0 0.0
2017-Oct-16 11:29N 34°39' E 135°15'0 0.0
2017-Oct-16 10:59N 34°39' E 135°15'0 0.0
2017-Oct-16 10:29N 34°39' E 135°15'0 0.0
2017-Oct-16 09:59N 34°39' E 135°15'0 0.0
2017-Oct-16 09:23N 34°39' E 135°15'0 0.0
2017-Oct-16 08:59N 34°39' E 135°15'0 0.0
2017-Oct-16 08:17N 34°39' E 135°15'0 0.0
2017-Oct-16 07:47N 34°39' E 135°15'0 0.0
2017-Oct-16 07:29N 34°39' E 135°15'0 0.0
2017-Oct-16 06:59N 34°39' E 135°15'0 0.1
2017-Oct-16 06:29N 34°39' E 135°15'0 0.1
2017-Oct-16 05:59N 34°39' E 135°15'0 0.0
2017-Oct-16 05:30N 34°39' E 135°15'0 0.6
2017-Oct-16 05:00N 34°39' E 135°15'4 9.0
2017-Oct-16 04:30N 34°37' E 135°11'6 9.7
2017-Oct-16 03:55N 34°35' E 135°04'713.0
2017-Oct-16 03:25N 34°36' E 134°56'10 1.9
2017-Oct-15 22:06N 34°41' E 134°45'211.5
2017-Oct-15 21:58N 34°40' E 134°47'611.8
2017-Oct-15 21:29N 34°37' E 134°53'612.8
2017-Oct-15 21:00N 34°38' E 135°00'612.0
2017-Oct-15 20:30N 34°36' E 135°07'611.1
2017-Oct-15 20:00N 34°40' E 135°11'1 2.4
2017-Oct-15 19:30N 34°41' E 135°12'0 0.0
2017-Oct-15 18:50N 34°41' E 135°12'0 0.0
2017-Oct-15 18:26N 34°41' E 135°12'0 0.0
2017-Oct-15 17:56N 34°41' E 135°12'0 0.0
2017-Oct-15 17:20N 34°41' E 135°12'0 0.0
2017-Oct-15 16:56N 34°41' E 135°12'0 0.0
2017-Oct-15 16:26N 34°41' E 135°12'0 0.0
2017-Oct-15 15:56N 34°41' E 135°12'0 0.0
2017-Oct-15 15:26N 34°41' E 135°12'0 0.0
2017-Oct-15 14:56N 34°41' E 135°12'0 0.0
2017-Oct-15 13:56N 34°41' E 135°12'0 0.0
2017-Oct-15 13:26N 34°41' E 135°12'0 0.0
2017-Oct-15 12:50N 34°41' E 135°12'0 0.0
2017-Oct-15 12:26N 34°41' E 135°12'0 0.0
2017-Oct-15 11:56N 34°41' E 135°12'0 0.0
2017-Oct-15 11:26N 34°41' E 135°12'0 0.0
2017-Oct-15 10:56N 34°41' E 135°12'0 0.0
2017-Oct-15 10:26N 34°41' E 135°12'0 0.0
2017-Oct-15 09:44N 34°41' E 135°12'0 0.0
2017-Oct-15 09:26N 34°41' E 135°12'0 0.0
2017-Oct-15 08:50N 34°41' E 135°12'0 0.0
2017-Oct-15 08:26N 34°41' E 135°12'0 0.0
2017-Oct-15 07:56N 34°41' E 135°12'0 0.0
2017-Oct-15 07:26N 34°41' E 135°12'0 0.0
2017-Oct-15 06:56N 34°41' E 135°12'0 0.0
2017-Oct-15 06:20N 34°41' E 135°12'0 0.0
2017-Oct-15 05:56N 34°41' E 135°12'0 0.0
2017-Oct-15 05:26N 34°41' E 135°12'0 0.0
2017-Oct-15 04:50N 34°41' E 135°12'0 0.0
2017-Oct-15 04:26N 34°41' E 135°12'0 0.0
2017-Oct-15 03:56N 34°41' E 135°12'0 0.0
2017-Oct-15 03:26N 34°41' E 135°12'0 0.0
2017-Oct-15 02:56N 34°41' E 135°12'0 0.0
2017-Oct-15 02:26N 34°41' E 135°12'0 0.0
2017-Oct-15 01:56N 34°41' E 135°12'0 0.0
2017-Oct-15 01:26N 34°41' E 135°12'0 0.0
2017-Oct-15 00:56N 34°41' E 135°12'0 0.0
2017-Oct-15 00:20N 34°41' E 135°12'0 0.0
2017-Oct-14 23:56N 34°41' E 135°12'0 0.0
2017-Oct-14 23:20N 34°41' E 135°12'0 0.0
2017-Oct-14 22:56N 34°41' E 135°12'0 0.0
2017-Oct-14 22:26N 34°41' E 135°12'0 0.0
2017-Oct-14 21:56N 34°41' E 135°12'0 0.0
2017-Oct-14 21:26N 34°41' E 135°12'0 0.0
2017-Oct-14 20:56N 34°41' E 135°12'0 0.0
2017-Oct-14 20:26N 34°41' E 135°12'0 0.0
2017-Oct-14 19:50N 34°41' E 135°12'0 0.0
2017-Oct-14 19:26N 34°41' E 135°12'0 0.0
2017-Oct-14 18:50N 34°41' E 135°12'0 0.0
2017-Oct-14 18:26N 34°41' E 135°12'0 0.0
2017-Oct-14 17:56N 34°41' E 135°12'0 0.0
2017-Oct-14 17:26N 34°41' E 135°12'0 0.0
2017-Oct-14 16:56N 34°41' E 135°12'0 0.0
2017-Oct-14 16:26N 34°41' E 135°12'0 0.0
2017-Oct-14 15:56N 34°41' E 135°12'0 0.0
2017-Oct-14 15:20N 34°41' E 135°12'0 0.0
2017-Oct-14 14:56N 34°41' E 135°12'0 0.0
2017-Oct-14 14:26N 34°41' E 135°12'0 0.0
2017-Oct-14 13:56N 34°41' E 135°12'0 0.0
2017-Oct-14 13:20N 34°41' E 135°12'0 0.0
2017-Oct-14 12:50N 34°41' E 135°12'0 0.0
2017-Oct-14 12:26N 34°41' E 135°12'0 0.0
2017-Oct-14 11:56N 34°41' E 135°12'0 0.0
2017-Oct-14 11:20N 34°41' E 135°12'0 0.0
2017-Oct-14 10:56N 34°41' E 135°12'0 0.0
2017-Oct-14 10:26N 34°41' E 135°12'0 0.0
2017-Oct-14 09:56N 34°41' E 135°12'0 0.0
2017-Oct-14 09:26N 34°41' E 135°12'0 0.0
2017-Oct-14 08:56N 34°41' E 135°12'0 0.0
2017-Oct-14 08:26N 34°41' E 135°12'0 0.0
2017-Oct-14 07:56N 34°41' E 135°12'0 0.0
2017-Oct-14 07:26N 34°41' E 135°12'0 0.0
2017-Oct-14 06:56N 34°41' E 135°12'0 0.0
2017-Oct-14 06:26N 34°41' E 135°12'0 0.0
2017-Oct-14 05:44N 34°41' E 135°12'0 0.0
2017-Oct-14 05:26N 34°41' E 135°12'0 0.0
2017-Oct-14 04:50N 34°41' E 135°12'0 0.0
2017-Oct-14 04:30N 34°41' E 135°12'2 3.8
2017-Oct-14 04:00N 34°39' E 135°11'3 5.6
2017-Oct-14 03:30N 34°39' E 135°15'0 0.4
2017-Oct-14 02:57N 34°39' E 135°15'0 0.0
2017-Oct-14 02:27N 34°39' E 135°15'0 0.0
2017-Oct-14 01:57N 34°39' E 135°15'1 1.3
2017-Oct-14 01:30N 34°40' E 135°15'2 3.1
2017-Oct-14 00:55N 34°41' E 135°17'0 0.0
2017-Oct-14 00:25N 34°41' E 135°17'0 0.0
2017-Oct-13 23:55N 34°41' E 135°17'0 0.9
2017-Oct-13 23:30N 34°41' E 135°16'2 4.4
2017-Oct-13 23:00N 34°39' E 135°15'0 0.1
2017-Oct-13 22:26N 34°39' E 135°15'0 0.0
2017-Oct-13 21:50N 34°39' E 135°15'0 0.0
2017-Oct-13 21:26N 34°39' E 135°15'0 0.0
2017-Oct-13 20:50N 34°39' E 135°15'0 0.0
2017-Oct-13 20:27N 34°39' E 135°15'0 0.0
2017-Oct-13 19:56N 34°39' E 135°15'0 0.0
2017-Oct-13 19:26N 34°39' E 135°15'0 0.0
2017-Oct-13 18:56N 34°39' E 135°15'0 0.0
2017-Oct-13 18:26N 34°39' E 135°15'0 0.0
2017-Oct-13 17:38N 34°39' E 135°15'0 0.0
2017-Oct-13 17:26N 34°39' E 135°15'0 0.0
2017-Oct-13 16:56N 34°39' E 135°15'0 0.0
2017-Oct-13 16:26N 34°39' E 135°15'0 0.0
2017-Oct-13 15:56N 34°39' E 135°15'0 0.0
2017-Oct-13 15:26N 34°39' E 135°15'0 0.1
2017-Oct-13 14:44N 34°39' E 135°15'0 0.2
2017-Oct-13 14:26N 34°39' E 135°15'0 0.0
2017-Oct-13 13:56N 34°39' E 135°15'0 0.0
2017-Oct-13 13:21N 34°39' E 135°15'0 0.1
2017-Oct-13 12:56N 34°39' E 135°15'0 0.1
2017-Oct-13 12:20N 34°39' E 135°15'0 0.1
2017-Oct-13 11:56N 34°39' E 135°15'0 0.1
2017-Oct-13 11:26N 34°39' E 135°15'3 5.9
2017-Oct-13 11:00N 34°37' E 135°13'611.8
2017-Oct-13 10:30N 34°35' E 135°06'912.1
2017-Oct-13 09:46N 34°36' E 134°55'812.2
2017-Oct-13 09:07N 34°40' E 134°47'7 1.3
2017-Oct-13 03:48N 34°37' E 134°54'412.9
2017-Oct-13 03:30N 34°38' E 134°59'611.9
2017-Oct-13 03:00N 34°36' E 135°06'611.4
2017-Oct-13 02:29N 34°37' E 135°13'2 4.8
2017-Oct-13 02:00N 34°39' E 135°15'0 0.1
2017-Oct-13 01:30N 34°39' E 135°15'0 0.5
2017-Oct-13 01:00N 34°39' E 135°15'2 3.3
2017-Oct-13 00:30N 34°41' E 135°16'1 0.9
2017-Oct-12 23:46N 34°41' E 135°17'0 0.0
2017-Oct-12 23:29N 34°41' E 135°17'1 2.1
2017-Oct-12 23:00N 34°40' E 135°16'2 4.2
2017-Oct-12 22:30N 34°39' E 135°15'0 0.0
2017-Oct-12 21:51N 34°39' E 135°15'0 0.0
2017-Oct-12 21:27N 34°39' E 135°15'0 0.0
2017-Oct-12 20:57N 34°39' E 135°15'0 0.0
2017-Oct-12 20:27N 34°39' E 135°15'0 0.0
2017-Oct-12 19:51N 34°39' E 135°15'0 0.0
2017-Oct-12 19:15N 34°39' E 135°15'0 0.0
2017-Oct-12 18:57N 34°39' E 135°15'0 0.0
2017-Oct-12 18:27N 34°39' E 135°15'0 0.0
2017-Oct-12 17:45N 34°39' E 135°15'0 0.2
2017-Oct-12 17:28N 34°39' E 135°15'2 5.1
2017-Oct-12 17:00N 34°37' E 135°13'611.7
2017-Oct-12 16:30N 34°35' E 135°06'610.3
2017-Oct-12 15:55N 34°37' E 134°59'11 0.3
2017-Oct-11 00:00N 34°37' E 135°12'612.2
2017-Oct-10 23:30N 34°35' E 135°05'711.0
2017-Oct-10 22:53N 34°36' E 134°57'4 0.1
2017-Oct-09 01:12N 34°35' E 134°53'414.7
2017-Oct-09 00:56N 34°37' E 134°57'614.1
2017-Oct-09 00:30N 34°36' E 135°04'510.7
2017-Oct-09 00:00N 34°37' E 135°11'5 9.7
2017-Oct-08 23:31N 34°39' E 135°16'3 6.9
2017-Oct-08 23:00N 34°41' E 135°13'0 0.0
2017-Oct-08 22:29N 34°41' E 135°13'0 0.0
2017-Oct-08 21:59N 34°41' E 135°13'0 0.0
2017-Oct-08 21:23N 34°41' E 135°13'0 0.0
2017-Oct-08 20:59N 34°41' E 135°13'0 0.0
2017-Oct-08 20:23N 34°41' E 135°13'0 0.0
2017-Oct-08 19:59N 34°41' E 135°13'0 0.0
2017-Oct-08 19:29N 34°41' E 135°13'0 0.0
2017-Oct-08 18:59N 34°41' E 135°13'0 0.0
2017-Oct-08 18:23N 34°41' E 135°13'0 0.0
2017-Oct-08 17:59N 34°41' E 135°13'0 0.0
2017-Oct-08 17:29N 34°41' E 135°13'0 0.0
2017-Oct-08 16:59N 34°41' E 135°13'0 0.0
2017-Oct-08 16:29N 34°41' E 135°13'0 0.0
2017-Oct-08 15:59N 34°41' E 135°13'0 0.0
2017-Oct-08 15:29N 34°41' E 135°13'0 0.0
2017-Oct-08 14:53N 34°41' E 135°13'0 0.0
2017-Oct-08 14:23N 34°41' E 135°13'0 0.0
2017-Oct-08 13:59N 34°41' E 135°13'0 0.0
2017-Oct-08 13:29N 34°41' E 135°13'0 0.0
2017-Oct-08 12:59N 34°41' E 135°13'0 0.0
2017-Oct-08 12:29N 34°41' E 135°13'0 0.0
2017-Oct-08 11:59N 34°41' E 135°13'0 0.0
2017-Oct-08 11:29N 34°41' E 135°13'0 0.0
2017-Oct-08 10:47N 34°41' E 135°13'0 0.0
2017-Oct-08 10:29N 34°41' E 135°13'0 0.0
2017-Oct-08 09:59N 34°41' E 135°13'0 0.0
2017-Oct-08 09:29N 34°41' E 135°13'0 0.0
2017-Oct-08 08:47N 34°41' E 135°13'0 0.0
2017-Oct-08 08:29N 34°41' E 135°13'0 0.0
2017-Oct-08 07:59N 34°41' E 135°13'0 0.0
2017-Oct-08 07:29N 34°41' E 135°13'0 0.0
2017-Oct-08 06:59N 34°41' E 135°13'0 0.0
2017-Oct-08 06:29N 34°41' E 135°13'0 0.0
2017-Oct-08 05:59N 34°41' E 135°13'0 0.0
2017-Oct-08 05:29N 34°41' E 135°13'0 0.0
2017-Oct-08 04:59N 34°41' E 135°13'0 0.0
2017-Oct-08 04:29N 34°41' E 135°13'0 0.0
2017-Oct-08 03:59N 34°41' E 135°13'0 0.0
2017-Oct-08 03:29N 34°41' E 135°13'0 0.0
2017-Oct-08 02:59N 34°41' E 135°13'0 0.0
2017-Oct-08 02:29N 34°41' E 135°13'0 0.0
2017-Oct-08 01:53N 34°41' E 135°13'0 0.0
2017-Oct-08 01:29N 34°41' E 135°13'0 0.0
2017-Oct-08 00:59N 34°41' E 135°13'0 0.0
2017-Oct-08 00:29N 34°41' E 135°13'0 0.0
2017-Oct-07 23:59N 34°41' E 135°13'0 0.0
2017-Oct-07 23:17N 34°41' E 135°13'0 0.0
2017-Oct-07 22:53N 34°41' E 135°13'0 0.0
2017-Oct-07 22:29N 34°41' E 135°13'0 0.0
2017-Oct-07 21:59N 34°41' E 135°13'0 0.0
2017-Oct-07 21:29N 34°41' E 135°13'0 0.0
2017-Oct-07 20:59N 34°41' E 135°13'0 0.0
2017-Oct-07 20:29N 34°41' E 135°13'0 0.0
2017-Oct-07 19:59N 34°41' E 135°13'0 0.0
2017-Oct-07 19:17N 34°41' E 135°13'0 0.0
2017-Oct-07 18:59N 34°41' E 135°13'0 0.0
2017-Oct-07 18:29N 34°41' E 135°13'0 0.0
2017-Oct-07 17:41N 34°41' E 135°13'0 0.0
2017-Oct-07 17:29N 34°41' E 135°13'0 0.0
2017-Oct-07 16:53N 34°41' E 135°13'0 0.0
2017-Oct-07 16:29N 34°41' E 135°13'0 0.0
2017-Oct-07 15:59N 34°41' E 135°13'0 0.0
2017-Oct-07 15:29N 34°41' E 135°13'0 0.0
2017-Oct-07 14:53N 34°41' E 135°13'0 0.0
2017-Oct-07 14:29N 34°41' E 135°13'0 0.0
2017-Oct-07 13:53N 34°41' E 135°13'0 0.0
2017-Oct-07 13:29N 34°41' E 135°13'0 0.0
2017-Oct-07 12:53N 34°41' E 135°13'0 0.0
2017-Oct-07 12:29N 34°41' E 135°13'0 0.0
2017-Oct-07 11:59N 34°41' E 135°13'0 0.0
2017-Oct-07 11:23N 34°41' E 135°13'0 0.0
2017-Oct-07 10:47N 34°41' E 135°13'0 0.0
2017-Oct-07 10:29N 34°41' E 135°13'0 0.0
2017-Oct-07 09:59N 34°41' E 135°13'0 0.0
2017-Oct-07 09:23N 34°41' E 135°13'0 0.0
2017-Oct-07 08:53N 34°41' E 135°13'0 0.0
2017-Oct-07 08:29N 34°41' E 135°13'0 0.0
2017-Oct-07 07:59N 34°41' E 135°13'0 0.0
2017-Oct-07 07:29N 34°41' E 135°13'0 0.0
2017-Oct-07 06:59N 34°41' E 135°13'  
Track history (hours):
 
Tides and Currents Weather Stations Pressure Air Temp Water Temp Dewpoint Dewpoint Depression Visibility Wind Speed Wind Dir Waves Ship Positions

Akashi

Last reported at 2017-Oct-17 06:36 UTC. Time now 2017-Oct-17 22:28 UTC.
Position N 34°37' E 134°54'.

Length 75 m; draft 5 m.

Type: Cargo ship. MMSI: 431301627.

Date/timePositionNaut miles runAvg speedWind from/ knotsBaromVisibWave heightAir tempDewpointWater temp
2017-Oct-17 06:36N 34°37' E 134°54'211.9
2017-Oct-17 06:27N 34°37' E 134°56'510.5
2017-Oct-17 06:00N 34°37' E 135°02'5 9.9
2017-Oct-17 05:30N 34°37' E 135°08'611.4
2017-Oct-17 05:01N 34°37' E 135°15'4 7.5
2017-Oct-17 04:30N 34°41' E 135°17'0 0.1
2017-Oct-17 03:57N 34°41' E 135°17'0 0.0
2017-Oct-17 02:56N 34°41' E 135°17'0 0.0
2017-Oct-17 02:26N 34°41' E 135°17'0 0.5
2017-Oct-17 02:00N 34°41' E 135°16'2 3.6
2017-Oct-17 01:26N 34°40' E 135°14'0 0.0
2017-Oct-17 00:56N 34°40' E 135°14'0 0.9
2017-Oct-17 00:29N 34°39' E 135°15'0 0.0
2017-Oct-16 23:59N 34°39' E 135°15'0 0.0
2017-Oct-16 22:35N 34°39' E 135°15'0 0.0
2017-Oct-16 22:23N 34°39' E 135°15'0 0.0
2017-Oct-16 21:59N 34°39' E 135°15'0 0.0
2017-Oct-16 21:29N 34°39' E 135°15'0 0.0
2017-Oct-16 20:59N 34°39' E 135°15'0 0.0
2017-Oct-16 20:29N 34°39' E 135°15'0 0.0
2017-Oct-16 19:59N 34°39' E 135°15'0 0.0
2017-Oct-16 19:11N 34°39' E 135°15'0 0.0
2017-Oct-16 18:53N 34°39' E 135°15'0 0.0
2017-Oct-16 18:29N 34°39' E 135°15'0 0.0
2017-Oct-16 17:59N 34°39' E 135°15'0 0.0
2017-Oct-16 16:59N 34°39' E 135°15'0 0.0
2017-Oct-16 16:29N 34°39' E 135°15'0 0.0
2017-Oct-16 15:59N 34°39' E 135°15'0 0.0
2017-Oct-16 15:29N 34°39' E 135°15'0 0.1
2017-Oct-16 14:47N 34°39' E 135°15'0 0.1
2017-Oct-16 13:53N 34°39' E 135°15'0 0.0
2017-Oct-16 13:29N 34°39' E 135°15'0 0.0
2017-Oct-16 12:59N 34°39' E 135°15'0 0.0
2017-Oct-16 12:29N 34°39' E 135°15'0 0.0
2017-Oct-16 11:59N 34°39' E 135°15'0 0.0
2017-Oct-16 11:29N 34°39' E 135°15'0 0.0
2017-Oct-16 10:59N 34°39' E 135°15'0 0.0
2017-Oct-16 10:29N 34°39' E 135°15'0 0.0
2017-Oct-16 09:59N 34°39' E 135°15'0 0.0
2017-Oct-16 09:23N 34°39' E 135°15'0 0.0
2017-Oct-16 08:59N 34°39' E 135°15'0 0.0
2017-Oct-16 08:17N 34°39' E 135°15'0 0.0
2017-Oct-16 07:47N 34°39' E 135°15'0 0.0
2017-Oct-16 07:29N 34°39' E 135°15'0 0.0
2017-Oct-16 06:59N 34°39' E 135°15'0 0.1
2017-Oct-16 06:29N 34°39' E 135°15'0 0.1
2017-Oct-16 05:59N 34°39' E 135°15'0 0.0
2017-Oct-16 05:30N 34°39' E 135°15'0 0.6
2017-Oct-16 05:00N 34°39' E 135°15'4 9.0
2017-Oct-16 04:30N 34°37' E 135°11'6 9.7
2017-Oct-16 03:55N 34°35' E 135°04'713.0
2017-Oct-16 03:25N 34°36' E 134°56'10 1.9
2017-Oct-15 22:06N 34°41' E 134°45'211.5
2017-Oct-15 21:58N 34°40' E 134°47'611.8
2017-Oct-15 21:29N 34°37' E 134°53'612.8
2017-Oct-15 21:00N 34°38' E 135°00'612.0
2017-Oct-15 20:30N 34°36' E 135°07'611.1
2017-Oct-15 20:00N 34°40' E 135°11'1 2.4
2017-Oct-15 19:30N 34°41' E 135°12'0 0.0
2017-Oct-15 18:50N 34°41' E 135°12'0 0.0
2017-Oct-15 18:26N 34°41' E 135°12'0 0.0
2017-Oct-15 17:56N 34°41' E 135°12'0 0.0
2017-Oct-15 17:20N 34°41' E 135°12'0 0.0
2017-Oct-15 16:56N 34°41' E 135°12'0 0.0
2017-Oct-15 16:26N 34°41' E 135°12'0 0.0
2017-Oct-15 15:56N 34°41' E 135°12'0 0.0
2017-Oct-15 15:26N 34°41' E 135°12'0 0.0
2017-Oct-15 14:56N 34°41' E 135°12'0 0.0
2017-Oct-15 13:56N 34°41' E 135°12'0 0.0
2017-Oct-15 13:26N 34°41' E 135°12'0 0.0
2017-Oct-15 12:50N 34°41' E 135°12'0 0.0
2017-Oct-15 12:26N 34°41' E 135°12'0 0.0
2017-Oct-15 11:56N 34°41' E 135°12'0 0.0
2017-Oct-15 11:26N 34°41' E 135°12'0 0.0
2017-Oct-15 10:56N 34°41' E 135°12'0 0.0
2017-Oct-15 10:26N 34°41' E 135°12'0 0.0
2017-Oct-15 09:44N 34°41' E 135°12'0 0.0
2017-Oct-15 09:26N 34°41' E 135°12'0 0.0
2017-Oct-15 08:50N 34°41' E 135°12'0 0.0
2017-Oct-15 08:26N 34°41' E 135°12'0 0.0
2017-Oct-15 07:56N 34°41' E 135°12'0 0.0
2017-Oct-15 07:26N 34°41' E 135°12'0 0.0
2017-Oct-15 06:56N 34°41' E 135°12'0 0.0
2017-Oct-15 06:20N 34°41' E 135°12'0 0.0
2017-Oct-15 05:56N 34°41' E 135°12'0 0.0
2017-Oct-15 05:26N 34°41' E 135°12'0 0.0
2017-Oct-15 04:50N 34°41' E 135°12'0 0.0
2017-Oct-15 04:26N 34°41' E 135°12'0 0.0
2017-Oct-15 03:56N 34°41' E 135°12'0 0.0
2017-Oct-15 03:26N 34°41' E 135°12'0 0.0
2017-Oct-15 02:56N 34°41' E 135°12'0 0.0
2017-Oct-15 02:26N 34°41' E 135°12'0 0.0
2017-Oct-15 01:56N 34°41' E 135°12'0 0.0
2017-Oct-15 01:26N 34°41' E 135°12'0 0.0
2017-Oct-15 00:56N 34°41' E 135°12'0 0.0
2017-Oct-15 00:20N 34°41' E 135°12'0 0.0
2017-Oct-14 23:56N 34°41' E 135°12'0 0.0
2017-Oct-14 23:20N 34°41' E 135°12'0 0.0
2017-Oct-14 22:56N 34°41' E 135°12'0 0.0
2017-Oct-14 22:26N 34°41' E 135°12'0 0.0
2017-Oct-14 21:56N 34°41' E 135°12'0 0.0
2017-Oct-14 21:26N 34°41' E 135°12'0 0.0
2017-Oct-14 20:56N 34°41' E 135°12'0 0.0
2017-Oct-14 20:26N 34°41' E 135°12'0 0.0
2017-Oct-14 19:50N 34°41' E 135°12'0 0.0
2017-Oct-14 19:26N 34°41' E 135°12'0 0.0
2017-Oct-14 18:50N 34°41' E 135°12'0 0.0
2017-Oct-14 18:26N 34°41' E 135°12'0 0.0
2017-Oct-14 17:56N 34°41' E 135°12'0 0.0
2017-Oct-14 17:26N 34°41' E 135°12'0 0.0
2017-Oct-14 16:56N 34°41' E 135°12'0 0.0
2017-Oct-14 16:26N 34°41' E 135°12'0 0.0
2017-Oct-14 15:56N 34°41' E 135°12'0 0.0
2017-Oct-14 15:20N 34°41' E 135°12'0 0.0
2017-Oct-14 14:56N 34°41' E 135°12'0 0.0
2017-Oct-14 14:26N 34°41' E 135°12'0 0.0
2017-Oct-14 13:56N 34°41' E 135°12'0 0.0
2017-Oct-14 13:20N 34°41' E 135°12'0 0.0
2017-Oct-14 12:50N 34°41' E 135°12'0 0.0
2017-Oct-14 12:26N 34°41' E 135°12'0 0.0
2017-Oct-14 11:56N 34°41' E 135°12'0 0.0
2017-Oct-14 11:20N 34°41' E 135°12'0 0.0
2017-Oct-14 10:56N 34°41' E 135°12'0 0.0
2017-Oct-14 10:26N 34°41' E 135°12'0 0.0
2017-Oct-14 09:56N 34°41' E 135°12'0 0.0
2017-Oct-14 09:26N 34°41' E 135°12'0 0.0
2017-Oct-14 08:56N 34°41' E 135°12'0 0.0
2017-Oct-14 08:26N 34°41' E 135°12'0 0.0
2017-Oct-14 07:56N 34°41' E 135°12'0 0.0
2017-Oct-14 07:26N 34°41' E 135°12'0 0.0
2017-Oct-14 06:56N 34°41' E 135°12'0 0.0
2017-Oct-14 06:26N 34°41' E 135°12'0 0.0
2017-Oct-14 05:44N 34°41' E 135°12'0 0.0
2017-Oct-14 05:26N 34°41' E 135°12'0 0.0
2017-Oct-14 04:50N 34°41' E 135°12'0 0.0
2017-Oct-14 04:30N 34°41' E 135°12'2 3.8
2017-Oct-14 04:00N 34°39' E 135°11'3 5.6
2017-Oct-14 03:30N 34°39' E 135°15'0 0.4
2017-Oct-14 02:57N 34°39' E 135°15'0 0.0
2017-Oct-14 02:27N 34°39' E 135°15'0 0.0
2017-Oct-14 01:57N 34°39' E 135°15'1 1.3
2017-Oct-14 01:30N 34°40' E 135°15'2 3.1
2017-Oct-14 00:55N 34°41' E 135°17'0 0.0
2017-Oct-14 00:25N 34°41' E 135°17'0 0.0
2017-Oct-13 23:55N 34°41' E 135°17'0 0.9
2017-Oct-13 23:30N 34°41' E 135°16'2 4.4
2017-Oct-13 23:00N 34°39' E 135°15'0 0.1
2017-Oct-13 22:26N 34°39' E 135°15'0 0.0
2017-Oct-13 21:50N 34°39' E 135°15'0 0.0
2017-Oct-13 21:26N 34°39' E 135°15'0 0.0
2017-Oct-13 20:50N 34°39' E 135°15'0 0.0
2017-Oct-13 20:27N 34°39' E 135°15'0 0.0
2017-Oct-13 19:56N 34°39' E 135°15'0 0.0
2017-Oct-13 19:26N 34°39' E 135°15'0 0.0
2017-Oct-13 18:56N 34°39' E 135°15'0 0.0
2017-Oct-13 18:26N 34°39' E 135°15'0 0.0
2017-Oct-13 17:38N 34°39' E 135°15'0 0.0
2017-Oct-13 17:26N 34°39' E 135°15'0 0.0
2017-Oct-13 16:56N 34°39' E 135°15'0 0.0
2017-Oct-13 16:26N 34°39' E 135°15'0 0.0
2017-Oct-13 15:56N 34°39' E 135°15'0 0.0
2017-Oct-13 15:26N 34°39' E 135°15'0 0.1
2017-Oct-13 14:44N 34°39' E 135°15'0 0.2
2017-Oct-13 14:26N 34°39' E 135°15'0 0.0
2017-Oct-13 13:56N 34°39' E 135°15'0 0.0
2017-Oct-13 13:21N 34°39' E 135°15'0 0.1
2017-Oct-13 12:56N 34°39' E 135°15'0 0.1
2017-Oct-13 12:20N 34°39' E 135°15'0 0.1
2017-Oct-13 11:56N 34°39' E 135°15'0 0.1
2017-Oct-13 11:26N 34°39' E 135°15'3 5.9
2017-Oct-13 11:00N 34°37' E 135°13'611.8
2017-Oct-13 10:30N 34°35' E 135°06'912.1
2017-Oct-13 09:46N 34°36' E 134°55'812.2
2017-Oct-13 09:07N 34°40' E 134°47'7 1.3
2017-Oct-13 03:48N 34°37' E 134°54'412.9
2017-Oct-13 03:30N 34°38' E 134°59'611.9
2017-Oct-13 03:00N 34°36' E 135°06'611.4
2017-Oct-13 02:29N 34°37' E 135°13'2 4.8
2017-Oct-13 02:00N 34°39' E 135°15'0 0.1
2017-Oct-13 01:30N 34°39' E 135°15'0 0.5
2017-Oct-13 01:00N 34°39' E 135°15'2 3.3
2017-Oct-13 00:30N 34°41' E 135°16'1 0.9
2017-Oct-12 23:46N 34°41' E 135°17'0 0.0
2017-Oct-12 23:29N 34°41' E 135°17'1 2.1
2017-Oct-12 23:00N 34°40' E 135°16'2 4.2
2017-Oct-12 22:30N 34°39' E 135°15'0 0.0
2017-Oct-12 21:51N 34°39' E 135°15'0 0.0
2017-Oct-12 21:27N 34°39' E 135°15'0 0.0
2017-Oct-12 20:57N 34°39' E 135°15'0 0.0
2017-Oct-12 20:27N 34°39' E 135°15'0 0.0
2017-Oct-12 19:51N 34°39' E 135°15'0 0.0
2017-Oct-12 19:15N 34°39' E 135°15'0 0.0
2017-Oct-12 18:57N 34°39' E 135°15'0 0.0
2017-Oct-12 18:27N 34°39' E 135°15'0 0.0
2017-Oct-12 17:45N 34°39' E 135°15'0 0.2
2017-Oct-12 17:28N 34°39' E 135°15'2 5.1
2017-Oct-12 17:00N 34°37' E 135°13'611.7
2017-Oct-12 16:30N 34°35' E 135°06'610.3
2017-Oct-12 15:55N 34°37' E 134°59'11 0.3
2017-Oct-11 00:00N 34°37' E 135°12'612.2
2017-Oct-10 23:30N 34°35' E 135°05'711.0
2017-Oct-10 22:53N 34°36' E 134°57'4 0.1
2017-Oct-09 01:12N 34°35' E 134°53'414.7
2017-Oct-09 00:56N 34°37' E 134°57'614.1
2017-Oct-09 00:30N 34°36' E 135°04'510.7
2017-Oct-09 00:00N 34°37' E 135°11'5 9.7
2017-Oct-08 23:31N 34°39' E 135°16'3 6.9
2017-Oct-08 23:00N 34°41' E 135°13'0 0.0
2017-Oct-08 22:29N 34°41' E 135°13'0 0.0
2017-Oct-08 21:59N 34°41' E 135°13'0 0.0
2017-Oct-08 21:23N 34°41' E 135°13'0 0.0
2017-Oct-08 20:59N 34°41' E 135°13'0 0.0
2017-Oct-08 20:23N 34°41' E 135°13'0 0.0
2017-Oct-08 19:59N 34°41' E 135°13'0 0.0
2017-Oct-08 19:29N 34°41' E 135°13'0 0.0
2017-Oct-08 18:59N 34°41' E 135°13'0 0.0
2017-Oct-08 18:23N 34°41' E 135°13'0 0.0
2017-Oct-08 17:59N 34°41' E 135°13'0 0.0
2017-Oct-08 17:29N 34°41' E 135°13'0 0.0
2017-Oct-08 16:59N 34°41' E 135°13'0 0.0
2017-Oct-08 16:29N 34°41' E 135°13'0 0.0
2017-Oct-08 15:59N 34°41' E 135°13'0 0.0
2017-Oct-08 15:29N 34°41' E 135°13'0 0.0
2017-Oct-08 14:53N 34°41' E 135°13'0 0.0
2017-Oct-08 14:23N 34°41' E 135°13'0 0.0
2017-Oct-08 13:59N 34°41' E 135°13'0 0.0
2017-Oct-08 13:29N 34°41' E 135°13'0 0.0
2017-Oct-08 12:59N 34°41' E 135°13'0 0.0
2017-Oct-08 12:29N 34°41' E 135°13'0 0.0
2017-Oct-08 11:59N 34°41' E 135°13'0 0.0
2017-Oct-08 11:29N 34°41' E 135°13'0 0.0
2017-Oct-08 10:47N 34°41' E 135°13'0 0.0
2017-Oct-08 10:29N 34°41' E 135°13'0 0.0
2017-Oct-08 09:59N 34°41' E 135°13'0 0.0
2017-Oct-08 09:29N 34°41' E 135°13'0 0.0
2017-Oct-08 08:47N 34°41' E 135°13'0 0.0
2017-Oct-08 08:29N 34°41' E 135°13'0 0.0
2017-Oct-08 07:59N 34°41' E 135°13'0 0.0
2017-Oct-08 07:29N 34°41' E 135°13'0 0.0
2017-Oct-08 06:59N 34°41' E 135°13'0 0.0
2017-Oct-08 06:29N 34°41' E 135°13'0 0.0
2017-Oct-08 05:59N 34°41' E 135°13'0 0.0
2017-Oct-08 05:29N 34°41' E 135°13'0 0.0
2017-Oct-08 04:59N 34°41' E 135°13'0 0.0
2017-Oct-08 04:29N 34°41' E 135°13'0 0.0
2017-Oct-08 03:59N 34°41' E 135°13'0 0.0
2017-Oct-08 03:29N 34°41' E 135°13'0 0.0
2017-Oct-08 02:59N 34°41' E 135°13'0 0.0
2017-Oct-08 02:29N 34°41' E 135°13'0 0.0
2017-Oct-08 01:53N 34°41' E 135°13'0 0.0
2017-Oct-08 01:29N 34°41' E 135°13'0 0.0
2017-Oct-08 00:59N 34°41' E 135°13'0 0.0
2017-Oct-08 00:29N 34°41' E 135°13'0 0.0
2017-Oct-07 23:59N 34°41' E 135°13'0 0.0
2017-Oct-07 23:17N 34°41' E 135°13'0 0.0
2017-Oct-07 22:53N 34°41' E 135°13'0 0.0
2017-Oct-07 22:29N 34°41' E 135°13'0 0.0
2017-Oct-07 21:59N 34°41' E 135°13'0 0.0
2017-Oct-07 21:29N 34°41' E 135°13'0 0.0
2017-Oct-07 20:59N 34°41' E 135°13'0 0.0
2017-Oct-07 20:29N 34°41' E 135°13'0 0.0
2017-Oct-07 19:59N 34°41' E 135°13'0 0.0
2017-Oct-07 19:17N 34°41' E 135°13'0 0.0
2017-Oct-07 18:59N 34°41' E 135°13'0 0.0
2017-Oct-07 18:29N 34°41' E 135°13'0 0.0
2017-Oct-07 17:41N 34°41' E 135°13'0 0.0
2017-Oct-07 17:29N 34°41' E 135°13'0 0.0
2017-Oct-07 16:53N 34°41' E 135°13'0 0.0
2017-Oct-07 16:29N 34°41' E 135°13'0 0.0
2017-Oct-07 15:59N 34°41' E 135°13'0 0.0
2017-Oct-07 15:29N 34°41' E 135°13'0 0.0
2017-Oct-07 14:53N 34°41' E 135°13'0 0.0
2017-Oct-07 14:29N 34°41' E 135°13'0 0.0
2017-Oct-07 13:53N 34°41' E 135°13'0 0.0
2017-Oct-07 13:29N 34°41' E 135°13'0 0.0
2017-Oct-07 12:53N 34°41' E 135°13'0 0.0
2017-Oct-07 12:29N 34°41' E 135°13'0 0.0
2017-Oct-07 11:59N 34°41' E 135°13'0 0.0
2017-Oct-07 11:23N 34°41' E 135°13'0 0.0
2017-Oct-07 10:47N 34°41' E 135°13'0 0.0
2017-Oct-07 10:29N 34°41' E 135°13'0 0.0
2017-Oct-07 09:59N 34°41' E 135°13'0 0.0
2017-Oct-07 09:23N 34°41' E 135°13'0 0.0
2017-Oct-07 08:53N 34°41' E 135°13'0 0.0
2017-Oct-07 08:29N 34°41' E 135°13'0 0.0
2017-Oct-07 07:59N 34°41' E 135°13'0 0.0
2017-Oct-07 07:29N 34°41' E 135°13'0 0.0
2017-Oct-07 06:59N 34°41' E 135°13'  

Dump ship's entire track history